Station History

Weather Underground - logo

Station Historical Data
Daily Summary for December 3, 2017 Units:  Both    English   Metric
« Previous Day
Next Day »
Daily Weekly Monthly Yearly Custom
  High: Low: Average:
Temperature: 61.1 °F /  16.2 °C 41.0 °F /  5 °C 49.7 °F /  9.8 °C
Dew Point: 50.4 °F /  10.2 °C 37.5 °F /  3.1 °C 43.3 °F /  6.3 °C
Humidity: 95 % 54 % 80 %
Wind Speed: 5.0 mph /  8 km/h - 0.9 mph /  1.4 km/h
Wind Gust: 5.0 mph /  8 km/h - -
Wind:- - WNW
Pressure: 30.18 in /  1021.9 hPa 30.03 in /  1016.8 hPa -
Precipitation: 0.00 in /  0 mm    
Historical Graphs
 
 
Tabular Data for December 3, 2017
Time Temperature Dew Point Pressure Wind Wind Speed Wind Gust Humidity Rainfall Rate (Hourly)
00:00 44.4 °F /  6.9 °C 42.5 °F /  5.8 °C 30.04 in /  1017.2 hPa Calm     93 % 0.00 in /  0 mm
00:05 44.6 °F /  7 °C 42.7 °F /  5.9 °C 30.04 in /  1017.2 hPa Calm     93 % 0.00 in /  0 mm
00:10 44.8 °F /  7.1 °C 42.9 °F /  6.1 °C 30.04 in /  1017.2 hPa Calm     93 % 0.00 in /  0 mm
00:15 44.9 °F /  7.2 °C 43.0 °F /  6.1 °C 30.04 in /  1017.2 hPa Calm     93 % 0.00 in /  0 mm
00:20 45.1 °F /  7.3 °C 43.2 °F /  6.2 °C 30.03 in /  1016.8 hPa Calm     93 % 0.00 in /  0 mm
00:25 45.1 °F /  7.3 °C 43.2 °F /  6.2 °C 30.03 in /  1016.8 hPa Calm     93 % 0.00 in /  0 mm
00:30 45.0 °F /  7.2 °C 43.1 °F /  6.2 °C 30.03 in /  1016.8 hPa Calm     93 % 0.00 in /  0 mm
00:40 45.3 °F /  7.4 °C 43.4 °F /  6.3 °C 30.04 in /  1017.2 hPa Calm     93 % 0.00 in /  0 mm
00:50 44.5 °F /  6.9 °C 42.3 °F /  5.7 °C 30.04 in /  1017.2 hPa Calm     92 % 0.00 in /  0 mm
00:55 44.4 °F /  6.9 °C 42.2 °F /  5.7 °C 30.04 in /  1017.2 hPa Calm     92 % 0.00 in /  0 mm
01:10 45.0 °F /  7.2 °C 43.4 °F /  6.3 °C 30.03 in /  1016.8 hPa Calm     94 % 0.00 in /  0 mm
01:20 45.2 °F /  7.3 °C 43.3 °F /  6.3 °C 30.04 in /  1017.2 hPa Calm     93 % 0.00 in /  0 mm
01:25 45.2 °F /  7.3 °C 43.3 °F /  6.3 °C 30.04 in /  1017.2 hPa Calm     93 % 0.00 in /  0 mm
01:30 45.0 °F /  7.2 °C 43.1 °F /  6.2 °C 30.04 in /  1017.2 hPa Calm     93 % 0.00 in /  0 mm
01:35 44.7 °F /  7.1 °C 42.5 °F /  5.8 °C 30.04 in /  1017.2 hPa Calm     92 % 0.00 in /  0 mm
01:40 44.5 °F /  6.9 °C 42.6 °F /  5.9 °C 30.04 in /  1017.2 hPa Calm     93 % 0.00 in /  0 mm
01:45 44.4 °F /  6.9 °C 42.2 °F /  5.7 °C 30.04 in /  1017.2 hPa Calm     92 % 0.00 in /  0 mm
01:50 44.2 °F /  6.8 °C 42.0 °F /  5.6 °C 30.04 in /  1017.2 hPa Calm     92 % 0.00 in /  0 mm
01:55 44.2 °F /  6.8 °C 42.3 °F /  5.7 °C 30.04 in /  1017.2 hPa Calm     93 % 0.00 in /  0 mm
02:00 44.3 °F /  6.8 °C 42.4 °F /  5.8 °C 30.04 in /  1017.2 hPa ESE 1.2 mph /  1.9 km/h 1.2 mph /  1.9 km/h 93 % 0.00 in /  0 mm
02:05 44.5 °F /  6.9 °C 42.6 °F /  5.9 °C 30.05 in /  1017.5 hPa Calm     93 % 0.00 in /  0 mm
02:10 44.2 °F /  6.8 °C 42.0 °F /  5.6 °C 30.05 in /  1017.5 hPa Calm     92 % 0.00 in /  0 mm
02:15 44.0 °F /  6.7 °C 42.1 °F /  5.6 °C 30.05 in /  1017.5 hPa Calm     93 % 0.00 in /  0 mm
02:20 43.9 °F /  6.6 °C 42.0 °F /  5.6 °C 30.05 in /  1017.5 hPa Calm     93 % 0.00 in /  0 mm
02:25 43.9 °F /  6.6 °C 42.0 °F /  5.6 °C 30.06 in /  1017.8 hPa ESE 1.2 mph /  1.9 km/h   93 % 0.00 in /  0 mm
02:30 44.0 °F /  6.7 °C 42.1 °F /  5.6 °C 30.06 in /  1017.8 hPa Calm     93 % 0.00 in /  0 mm
02:35 44.1 °F /  6.7 °C 42.2 °F /  5.7 °C 30.06 in /  1017.8 hPa Calm     93 % 0.00 in /  0 mm
02:40 44.2 °F /  6.8 °C 42.3 °F /  5.7 °C 30.06 in /  1017.8 hPa Calm     93 % 0.00 in /  0 mm
02:45 44.2 °F /  6.8 °C 42.3 °F /  5.7 °C 30.06 in /  1017.8 hPa Calm     93 % 0.00 in /  0 mm
02:46 44.2 °F /  6.8 °C 42.3 °F /  5.7 °C 30.06 in /  1017.8 hPa Calm     93 % 0.00 in /  0 mm
02:51 44.3 °F /  6.8 °C 42.4 °F /  5.8 °C 30.06 in /  1017.8 hPa Calm     93 % 0.00 in /  0 mm
02:56 44.5 °F /  6.9 °C 42.9 °F /  6.1 °C 30.06 in /  1017.8 hPa Calm     94 % 0.00 in /  0 mm
03:01 44.8 °F /  7.1 °C 43.2 °F /  6.2 °C 30.05 in /  1017.5 hPa ESE 1.2 mph /  1.9 km/h   94 % 0.00 in /  0 mm
03:06 45.1 °F /  7.3 °C 43.5 °F /  6.4 °C 30.05 in /  1017.5 hPa Calm     94 % 0.00 in /  0 mm
03:11 45.3 °F /  7.4 °C 43.4 °F /  6.3 °C 30.05 in /  1017.5 hPa East 1.2 mph /  1.9 km/h 1.2 mph /  1.9 km/h 93 % 0.00 in /  0 mm
03:16 45.6 °F /  7.6 °C 43.7 °F /  6.5 °C 30.06 in /  1017.8 hPa Calm     93 % 0.00 in /  0 mm
03:21 45.7 °F /  7.6 °C 43.8 °F /  6.6 °C 30.06 in /  1017.8 hPa Calm     93 % 0.00 in /  0 mm
03:26 45.8 °F /  7.7 °C 43.9 °F /  6.6 °C 30.06 in /  1017.8 hPa Calm     93 % 0.00 in /  0 mm
03:31 45.9 °F /  7.7 °C 44.0 °F /  6.7 °C 30.06 in /  1017.8 hPa Calm     93 % 0.00 in /  0 mm
03:36 45.9 °F /  7.7 °C 44.0 °F /  6.7 °C 30.06 in /  1017.8 hPa Calm     93 % 0.00 in /  0 mm
03:41 45.8 °F /  7.7 °C 43.9 °F /  6.6 °C 30.06 in /  1017.8 hPa Calm     93 % 0.00 in /  0 mm
03:46 45.6 °F /  7.6 °C 43.7 °F /  6.5 °C 30.06 in /  1017.8 hPa Calm     93 % 0.00 in /  0 mm
03:56 45.4 °F /  7.4 °C 43.5 °F /  6.4 °C 30.06 in /  1017.8 hPa Calm     93 % 0.00 in /  0 mm
04:01 45.3 °F /  7.4 °C 43.4 °F /  6.3 °C 30.05 in /  1017.5 hPa Calm     93 % 0.00 in /  0 mm
04:06 45.3 °F /  7.4 °C 43.4 °F /  6.3 °C 30.05 in /  1017.5 hPa Calm     93 % 0.00 in /  0 mm
04:11 45.3 °F /  7.4 °C 43.4 °F /  6.3 °C 30.06 in /  1017.8 hPa Calm     93 % 0.00 in /  0 mm
04:16 45.2 °F /  7.3 °C 43.3 °F /  6.3 °C 30.06 in /  1017.8 hPa Calm     93 % 0.00 in /  0 mm
04:21 45.1 °F /  7.3 °C 43.2 °F /  6.2 °C 30.05 in /  1017.5 hPa Calm     93 % 0.00 in /  0 mm
04:26 45.1 °F /  7.3 °C 43.2 °F /  6.2 °C 30.06 in /  1017.8 hPa Calm     93 % 0.00 in /  0 mm
04:31 44.9 °F /  7.2 °C 43.0 °F /  6.1 °C 30.06 in /  1017.8 hPa Calm     93 % 0.00 in /  0 mm
04:36 44.9 °F /  7.2 °C 43.0 °F /  6.1 °C 30.06 in /  1017.8 hPa Calm     93 % 0.00 in /  0 mm
04:41 44.8 °F /  7.1 °C 42.9 °F /  6.1 °C 30.06 in /  1017.8 hPa Calm     93 % 0.00 in /  0 mm
04:46 44.7 °F /  7.1 °C 42.8 °F /  6 °C 30.06 in /  1017.8 hPa Calm     93 % 0.00 in /  0 mm
04:51 44.7 °F /  7.1 °C 43.1 °F /  6.2 °C 30.06 in /  1017.8 hPa Calm     94 % 0.00 in /  0 mm
04:56 44.7 °F /  7.1 °C 43.1 °F /  6.2 °C 30.06 in /  1017.8 hPa Calm     94 % 0.00 in /  0 mm
05:02 44.7 °F /  7.1 °C 43.1 °F /  6.2 °C 30.06 in /  1017.8 hPa Calm     94 % 0.00 in /  0 mm
05:07 44.7 °F /  7.1 °C 43.1 °F /  6.2 °C 30.06 in /  1017.8 hPa Calm     94 % 0.00 in /  0 mm
05:12 44.6 °F /  7 °C 43.0 °F /  6.1 °C 30.07 in /  1018.2 hPa Calm     94 % 0.00 in /  0 mm
05:17 44.4 °F /  6.9 °C 42.8 °F /  6 °C 30.07 in /  1018.2 hPa Calm     94 % 0.00 in /  0 mm
05:22 44.2 °F /  6.8 °C 42.6 °F /  5.9 °C 30.07 in /  1018.2 hPa Calm     94 % 0.00 in /  0 mm
05:27 44.1 °F /  6.7 °C 42.5 °F /  5.8 °C 30.08 in /  1018.5 hPa Calm     94 % 0.00 in /  0 mm
05:32 44.0 °F /  6.7 °C 42.4 °F /  5.8 °C 30.08 in /  1018.5 hPa Calm     94 % 0.00 in /  0 mm
05:37 44.0 °F /  6.7 °C 42.4 °F /  5.8 °C 30.08 in /  1018.5 hPa Calm     94 % 0.00 in /  0 mm
05:42 44.0 °F /  6.7 °C 42.4 °F /  5.8 °C 30.08 in /  1018.5 hPa Calm     94 % 0.00 in /  0 mm
05:47 43.9 °F /  6.6 °C 42.3 °F /  5.7 °C 30.09 in /  1018.8 hPa Calm     94 % 0.00 in /  0 mm
05:52 43.9 °F /  6.6 °C 42.3 °F /  5.7 °C 30.09 in /  1018.8 hPa Calm     94 % 0.00 in /  0 mm
05:57 43.9 °F /  6.6 °C 42.3 °F /  5.7 °C 30.09 in /  1018.8 hPa Calm     94 % 0.00 in /  0 mm
06:02 43.8 °F /  6.6 °C 42.5 °F /  5.8 °C 30.09 in /  1018.8 hPa Calm     95 % 0.00 in /  0 mm
06:07 43.7 °F /  6.5 °C 42.1 °F /  5.6 °C 30.09 in /  1018.8 hPa Calm     94 % 0.00 in /  0 mm
06:12 43.7 °F /  6.5 °C 42.4 °F /  5.8 °C 30.09 in /  1018.8 hPa Calm     95 % 0.00 in /  0 mm
06:17 43.6 °F /  6.4 °C 42.3 °F /  5.7 °C 30.10 in /  1019.2 hPa Calm     95 % 0.00 in /  0 mm
06:22 43.5 °F /  6.4 °C 42.2 °F /  5.7 °C 30.10 in /  1019.2 hPa Calm     95 % 0.00 in /  0 mm
06:27 43.4 °F /  6.3 °C 42.1 °F /  5.6 °C 30.10 in /  1019.2 hPa Calm     95 % 0.00 in /  0 mm
06:32 43.8 °F /  6.6 °C 42.5 °F /  5.8 °C 30.11 in /  1019.5 hPa East 1.2 mph /  1.9 km/h   95 % 0.00 in /  0 mm
06:37 44.0 °F /  6.7 °C 42.7 °F /  5.9 °C 30.11 in /  1019.5 hPa Calm     95 % 0.00 in /  0 mm
06:42 44.0 °F /  6.7 °C 42.7 °F /  5.9 °C 30.11 in /  1019.5 hPa Calm     95 % 0.00 in /  0 mm
06:47 43.9 °F /  6.6 °C 42.6 °F /  5.9 °C 30.11 in /  1019.5 hPa Calm     95 % 0.00 in /  0 mm
06:52 43.8 °F /  6.6 °C 42.5 °F /  5.8 °C 30.11 in /  1019.5 hPa Calm     95 % 0.00 in /  0 mm
06:57 43.9 °F /  6.6 °C 42.6 °F /  5.9 °C 30.11 in /  1019.5 hPa Calm     95 % 0.00 in /  0 mm
07:02 43.3 °F /  6.3 °C 41.7 °F /  5.4 °C 30.12 in /  1019.9 hPa Calm     94 % 0.00 in /  0 mm
07:07 43.1 °F /  6.2 °C 41.5 °F /  5.3 °C 30.12 in /  1019.9 hPa Calm     94 % 0.00 in /  0 mm
07:12 43.2 °F /  6.2 °C 41.9 °F /  5.5 °C 30.13 in /  1020.2 hPa Calm   0.1 mph /  0.2 km/h 95 % 0.00 in /  0 mm
07:17 42.9 °F /  6.1 °C 41.3 °F /  5.2 °C 30.13 in /  1020.2 hPa East 1.2 mph /  1.9 km/h 1.2 mph /  1.9 km/h 94 % 0.00 in /  0 mm
07:22 42.9 °F /  6.1 °C 41.3 °F /  5.2 °C 30.14 in /  1020.5 hPa NW 1.2 mph /  1.9 km/h 1.2 mph /  1.9 km/h 94 % 0.00 in /  0 mm
07:27 43.1 °F /  6.2 °C 41.8 °F /  5.4 °C 30.14 in /  1020.5 hPa NW 3.5 mph /  5.6 km/h 3.5 mph /  5.6 km/h 95 % 0.00 in /  0 mm
07:30 43.3 °F /  6.3 °C 42.0 °F /  5.6 °C 30.15 in /  1020.9 hPa NW 2.3 mph /  3.7 km/h 2.3 mph /  3.7 km/h 95 % 0.00 in /  0 mm
07:33 43.5 °F /  6.4 °C 42.2 °F /  5.7 °C 30.15 in /  1020.9 hPa NW 2.3 mph /  3.7 km/h 2.3 mph /  3.7 km/h 95 % 0.00 in /  0 mm
07:38 43.9 °F /  6.6 °C 42.6 °F /  5.9 °C 30.15 in /  1020.9 hPa NW 1.2 mph /  1.9 km/h 1.2 mph /  1.9 km/h 95 % 0.00 in /  0 mm
07:43 44.2 °F /  6.8 °C 42.9 °F /  6.1 °C 30.15 in /  1020.9 hPa NW 1.2 mph /  1.9 km/h   95 % 0.00 in /  0 mm
07:48 44.7 °F /  7.1 °C 43.4 °F /  6.3 °C 30.16 in /  1021.2 hPa Calm     95 % 0.00 in /  0 mm
07:53 45.1 °F /  7.3 °C 43.5 °F /  6.4 °C 30.16 in /  1021.2 hPa Calm     94 % 0.00 in /  0 mm
07:58 45.5 °F /  7.5 °C 43.9 °F /  6.6 °C 30.16 in /  1021.2 hPa Calm     94 % 0.00 in /  0 mm
08:03 45.9 °F /  7.7 °C 44.3 °F /  6.8 °C 30.16 in /  1021.2 hPa WNW 1.2 mph /  1.9 km/h   94 % 0.00 in /  0 mm
08:08 46.2 °F /  7.9 °C 44.6 °F /  7 °C 30.16 in /  1021.2 hPa Calm     94 % 0.00 in /  0 mm
08:13 46.4 °F /  8 °C 44.5 °F /  6.9 °C 30.16 in /  1021.2 hPa Calm     93 % 0.00 in /  0 mm
08:18 46.7 °F /  8.2 °C 44.8 °F /  7.1 °C 30.16 in /  1021.2 hPa Calm     93 % 0.00 in /  0 mm
08:23 47.1 °F /  8.4 °C 45.2 °F /  7.3 °C 30.16 in /  1021.2 hPa Calm     93 % 0.00 in /  0 mm
08:28 47.7 °F /  8.7 °C 45.8 °F /  7.7 °C 30.17 in /  1021.6 hPa Calm     93 % 0.00 in /  0 mm
08:33 48.2 °F /  9 °C 46.0 °F /  7.8 °C 30.17 in /  1021.6 hPa Calm     92 % 0.00 in /  0 mm
08:38 48.7 °F /  9.3 °C 46.5 °F /  8.1 °C 30.17 in /  1021.6 hPa Calm     92 % 0.00 in /  0 mm
08:43 49.2 °F /  9.6 °C 46.7 °F /  8.2 °C 30.17 in /  1021.6 hPa Calm     91 % 0.00 in /  0 mm
08:48 49.5 °F /  9.7 °C 46.7 °F /  8.2 °C 30.17 in /  1021.6 hPa Calm     90 % 0.00 in /  0 mm
08:53 49.8 °F /  9.9 °C 47.0 °F /  8.3 °C 30.17 in /  1021.6 hPa Calm     90 % 0.00 in /  0 mm
08:58 50.1 °F /  10.1 °C 47.0 °F /  8.3 °C 30.17 in /  1021.6 hPa Calm     89 % 0.00 in /  0 mm
09:03 50.4 °F /  10.2 °C 47.3 °F /  8.5 °C 30.17 in /  1021.6 hPa WNW 1.2 mph /  1.9 km/h 1.2 mph /  1.9 km/h 89 % 0.00 in /  0 mm
09:08 50.8 °F /  10.4 °C 47.7 °F /  8.7 °C 30.17 in /  1021.6 hPa Calm     89 % 0.00 in /  0 mm
09:13 51.6 °F /  10.9 °C 48.5 °F /  9.2 °C 30.17 in /  1021.6 hPa NNW 1.2 mph /  1.9 km/h   89 % 0.00 in /  0 mm
09:18 51.9 °F /  11.1 °C 48.5 °F /  9.2 °C 30.17 in /  1021.6 hPa NW 1.2 mph /  1.9 km/h   88 % 0.00 in /  0 mm
09:28 52.6 °F /  11.4 °C 48.8 °F /  9.3 °C 30.18 in /  1021.9 hPa WNW 2.3 mph /  3.7 km/h 2.3 mph /  3.7 km/h 87 % 0.00 in /  0 mm
09:33 52.8 °F /  11.6 °C 49.0 °F /  9.4 °C 30.17 in /  1021.6 hPa WNW 2.3 mph /  3.7 km/h 2.3 mph /  3.7 km/h 87 % 0.00 in /  0 mm
09:38 53.1 °F /  11.7 °C 49.3 °F /  9.6 °C 30.18 in /  1021.9 hPa NW 1.2 mph /  1.9 km/h 1.2 mph /  1.9 km/h 87 % 0.00 in /  0 mm
09:43 53.4 °F /  11.9 °C 49.3 °F /  9.6 °C 30.18 in /  1021.9 hPa WNW 1.2 mph /  1.9 km/h   86 % 0.00 in /  0 mm
09:48 53.8 °F /  12.1 °C 49.7 °F /  9.8 °C 30.18 in /  1021.9 hPa NW 1.0 mph /  1.6 km/h 1.0 mph /  1.6 km/h 86 % 0.00 in /  0 mm
09:53 54.3 °F /  12.4 °C 49.9 °F /  9.9 °C 30.18 in /  1021.9 hPa West 2.3 mph /  3.7 km/h 2.3 mph /  3.7 km/h 85 % 0.00 in /  0 mm
09:58 54.6 °F /  12.6 °C 50.2 °F /  10.1 °C 30.18 in /  1021.9 hPa WNW 1.2 mph /  1.9 km/h 1.2 mph /  1.9 km/h 85 % 0.00 in /  0 mm
10:03 55.0 °F /  12.8 °C 50.3 °F /  10.2 °C 30.18 in /  1021.9 hPa NW 3.5 mph /  5.6 km/h 3.5 mph /  5.6 km/h 84 % 0.00 in /  0 mm
10:08 55.1 °F /  12.8 °C 50.0 °F /  10 °C 30.18 in /  1021.9 hPa NW 3.5 mph /  5.6 km/h 3.5 mph /  5.6 km/h 83 % 0.00 in /  0 mm
10:13 55.5 °F /  13.1 °C 50.1 °F /  10.1 °C 30.18 in /  1021.9 hPa WNW 3.5 mph /  5.6 km/h 3.5 mph /  5.6 km/h 82 % 0.00 in /  0 mm
10:18 55.6 °F /  13.1 °C 50.2 °F /  10.1 °C 30.18 in /  1021.9 hPa NW 2.3 mph /  3.7 km/h 2.3 mph /  3.7 km/h 82 % 0.00 in /  0 mm
10:23 55.8 °F /  13.2 °C 50.1 °F /  10.1 °C 30.17 in /  1021.6 hPa NW 3.5 mph /  5.6 km/h 3.5 mph /  5.6 km/h 81 % 0.00 in /  0 mm
10:28 56.1 °F /  13.4 °C 50.3 °F /  10.2 °C 30.17 in /  1021.6 hPa NW 3.5 mph /  5.6 km/h 3.5 mph /  5.6 km/h 81 % 0.00 in /  0 mm
10:33 56.3 °F /  13.5 °C 50.2 °F /  10.1 °C 30.17 in /  1021.6 hPa WNW 3.5 mph /  5.6 km/h 3.5 mph /  5.6 km/h 80 % 0.00 in /  0 mm
10:38 56.5 °F /  13.6 °C 50.4 °F /  10.2 °C 30.17 in /  1021.6 hPa NW 5.0 mph /  8 km/h 5.0 mph /  8 km/h 80 % 0.00 in /  0 mm
10:43 56.6 °F /  13.7 °C 50.2 °F /  10.1 °C 30.17 in /  1021.6 hPa NW 3.5 mph /  5.6 km/h 3.5 mph /  5.6 km/h 79 % 0.00 in /  0 mm
10:49 56.6 °F /  13.7 °C 50.2 °F /  10.1 °C 30.17 in /  1021.6 hPa NNW 3.5 mph /  5.6 km/h 3.5 mph /  5.6 km/h 79 % 0.00 in /  0 mm
10:54 56.6 °F /  13.7 °C 50.2 °F /  10.1 °C 30.17 in /  1021.6 hPa North 4.6 mph /  7.4 km/h 4.6 mph /  7.4 km/h 79 % 0.00 in /  0 mm
10:59 56.6 °F /  13.7 °C 49.8 °F /  9.9 °C 30.17 in /  1021.6 hPa NW 3.5 mph /  5.6 km/h 3.5 mph /  5.6 km/h 78 % 0.00 in /  0 mm
11:04 56.9 °F /  13.8 °C 50.1 °F /  10.1 °C 30.17 in /  1021.6 hPa NNW 3.5 mph /  5.6 km/h 3.5 mph /  5.6 km/h 78 % 0.00 in /  0 mm
11:09 57.2 °F /  14 °C 50.1 °F /  10.1 °C 30.16 in /  1021.2 hPa NNE 3.5 mph /  5.6 km/h 3.5 mph /  5.6 km/h 77 % 0.00 in /  0 mm
11:14 57.4 °F /  14.1 °C 50.2 °F /  10.1 °C 30.16 in /  1021.2 hPa NW 3.5 mph /  5.6 km/h 3.5 mph /  5.6 km/h 77 % 0.00 in /  0 mm
11:19 57.6 °F /  14.2 °C 49.7 °F /  9.8 °C 30.16 in /  1021.2 hPa WNW 3.5 mph /  5.6 km/h 3.5 mph /  5.6 km/h 75 % 0.00 in /  0 mm
11:24 57.6 °F /  14.2 °C 49.7 °F /  9.8 °C 30.16 in /  1021.2 hPa NW 3.5 mph /  5.6 km/h 3.5 mph /  5.6 km/h 75 % 0.00 in /  0 mm
11:29 57.7 °F /  14.3 °C 50.2 °F /  10.1 °C 30.16 in /  1021.2 hPa NW 3.5 mph /  5.6 km/h 3.5 mph /  5.6 km/h 76 % 0.00 in /  0 mm
11:34 57.9 °F /  14.4 °C 50.0 °F /  10 °C 30.15 in /  1020.9 hPa North 3.5 mph /  5.6 km/h 3.5 mph /  5.6 km/h 75 % 0.00 in /  0 mm
11:39 57.9 °F /  14.4 °C 50.0 °F /  10 °C 30.15 in /  1020.9 hPa NW 3.5 mph /  5.6 km/h 3.5 mph /  5.6 km/h 75 % 0.00 in /  0 mm
11:44 57.8 °F /  14.3 °C 49.6 °F /  9.8 °C 30.15 in /  1020.9 hPa WNW 2.3 mph /  3.7 km/h 2.3 mph /  3.7 km/h 74 % 0.00 in /  0 mm
11:49 57.9 °F /  14.4 °C 49.7 °F /  9.8 °C 30.15 in /  1020.9 hPa NW 3.5 mph /  5.6 km/h 3.5 mph /  5.6 km/h 74 % 0.00 in /  0 mm
11:54 57.9 °F /  14.4 °C 49.7 °F /  9.8 °C 30.14 in /  1020.5 hPa NW 4.6 mph /  7.4 km/h 4.6 mph /  7.4 km/h 74 % 0.00 in /  0 mm
11:59 58.1 °F /  14.5 °C 49.9 °F /  9.9 °C 30.15 in /  1020.9 hPa WNW 3.5 mph /  5.6 km/h 3.5 mph /  5.6 km/h 74 % 0.00 in /  0 mm
12:04 58.1 °F /  14.5 °C 49.9 °F /  9.9 °C 30.14 in /  1020.5 hPa WNW 3.5 mph /  5.6 km/h 3.5 mph /  5.6 km/h 74 % 0.00 in /  0 mm
12:09 58.3 °F /  14.6 °C 49.3 °F /  9.6 °C 30.14 in /  1020.5 hPa NW 3.5 mph /  5.6 km/h 3.5 mph /  5.6 km/h 72 % 0.00 in /  0 mm
12:14 58.1 °F /  14.5 °C 49.1 °F /  9.5 °C 30.14 in /  1020.5 hPa WNW 3.5 mph /  5.6 km/h 3.5 mph /  5.6 km/h 72 % 0.00 in /  0 mm
12:19 58.1 °F /  14.5 °C 49.5 °F /  9.7 °C 30.13 in /  1020.2 hPa North 3.5 mph /  5.6 km/h 3.5 mph /  5.6 km/h 73 % 0.00 in /  0 mm
12:24 58.2 °F /  14.6 °C 49.6 °F /  9.8 °C 30.13 in /  1020.2 hPa North 3.5 mph /  5.6 km/h 3.5 mph /  5.6 km/h 73 % 0.00 in /  0 mm
12:29 58.2 °F /  14.6 °C 48.8 °F /  9.3 °C 30.13 in /  1020.2 hPa NW 3.5 mph /  5.6 km/h 3.5 mph /  5.6 km/h 71 % 0.00 in /  0 mm
12:34 58.4 °F /  14.7 °C 49.0 °F /  9.4 °C 30.13 in /  1020.2 hPa West 3.5 mph /  5.6 km/h 3.5 mph /  5.6 km/h 71 % 0.00 in /  0 mm
12:39 58.7 °F /  14.8 °C 49.3 °F /  9.6 °C 30.13 in /  1020.2 hPa WNW 3.5 mph /  5.6 km/h 3.5 mph /  5.6 km/h 71 % 0.00 in /  0 mm
12:44 58.9 °F /  14.9 °C 48.7 °F /  9.3 °C 30.12 in /  1019.9 hPa NW 2.3 mph /  3.7 km/h 2.3 mph /  3.7 km/h 69 % 0.00 in /  0 mm
12:49 59.0 °F /  15 °C 48.8 °F /  9.3 °C 30.12 in /  1019.9 hPa NW 2.3 mph /  3.7 km/h 2.3 mph /  3.7 km/h 69 % 0.00 in /  0 mm
12:54 59.1 °F /  15.1 °C 48.9 °F /  9.4 °C 30.12 in /  1019.9 hPa NW 2.0 mph /  3.2 km/h 2.0 mph /  3.2 km/h 69 % 0.00 in /  0 mm
12:59 59.4 °F /  15.2 °C 48.8 °F /  9.3 °C 30.12 in /  1019.9 hPa NW 3.5 mph /  5.6 km/h 3.5 mph /  5.6 km/h 68 % 0.00 in /  0 mm
13:04 59.2 °F /  15.1 °C 47.8 °F /  8.8 °C 30.12 in /  1019.9 hPa NNW 5.0 mph /  8 km/h 5.0 mph /  8 km/h 66 % 0.00 in /  0 mm
13:05 59.2 °F /  15.1 °C 47.8 °F /  8.8 °C 30.12 in /  1019.9 hPa WSW 4.6 mph /  7.4 km/h 4.6 mph /  7.4 km/h 66 % 0.00 in /  0 mm
13:10 59.2 °F /  15.1 °C 47.8 °F /  8.8 °C 30.11 in /  1019.5 hPa NNW 2.3 mph /  3.7 km/h 2.3 mph /  3.7 km/h 66 % 0.00 in /  0 mm
13:15 59.3 °F /  15.2 °C 47.5 °F /  8.6 °C 30.11 in /  1019.5 hPa NW 3.5 mph /  5.6 km/h 3.5 mph /  5.6 km/h 65 % 0.00 in /  0 mm
13:20 59.6 °F /  15.3 °C 47.8 °F /  8.8 °C 30.11 in /  1019.5 hPa NW 3.0 mph /  4.8 km/h 3.0 mph /  4.8 km/h 65 % 0.00 in /  0 mm
13:25 59.7 °F /  15.4 °C 47.5 °F /  8.6 °C 30.11 in /  1019.5 hPa NW 3.5 mph /  5.6 km/h 3.5 mph /  5.6 km/h 64 % 0.00 in /  0 mm
13:30 59.7 °F /  15.4 °C 47.9 °F /  8.8 °C 30.11 in /  1019.5 hPa NW 5.0 mph /  8 km/h 5.0 mph /  8 km/h 65 % 0.00 in /  0 mm
13:35 59.6 °F /  15.3 °C 46.6 °F /  8.1 °C 30.11 in /  1019.5 hPa NW 3.5 mph /  5.6 km/h 3.5 mph /  5.6 km/h 62 % 0.00 in /  0 mm
13:40 59.6 °F /  15.3 °C 47.0 °F /  8.3 °C 30.11 in /  1019.5 hPa NW 1.2 mph /  1.9 km/h 1.2 mph /  1.9 km/h 63 % 0.00 in /  0 mm
13:45 59.8 °F /  15.4 °C 46.7 °F /  8.2 °C 30.10 in /  1019.2 hPa NW 3.5 mph /  5.6 km/h 3.5 mph /  5.6 km/h 62 % 0.00 in /  0 mm
13:50 59.7 °F /  15.4 °C 46.2 °F /  7.9 °C 30.10 in /  1019.2 hPa NW 3.5 mph /  5.6 km/h 3.5 mph /  5.6 km/h 61 % 0.00 in /  0 mm
13:55 59.6 °F /  15.3 °C 46.6 °F /  8.1 °C 30.10 in /  1019.2 hPa NNW 2.0 mph /  3.2 km/h 2.0 mph /  3.2 km/h 62 % 0.00 in /  0 mm
14:00 59.7 °F /  15.4 °C 46.7 °F /  8.2 °C 30.10 in /  1019.2 hPa WNW 1.2 mph /  1.9 km/h 1.2 mph /  1.9 km/h 62 % 0.00 in /  0 mm
14:05 60.0 °F /  15.6 °C 46.5 °F /  8.1 °C 30.10 in /  1019.2 hPa NW 2.3 mph /  3.7 km/h 2.3 mph /  3.7 km/h 61 % 0.00 in /  0 mm
14:10 60.0 °F /  15.6 °C 46.5 °F /  8.1 °C 30.10 in /  1019.2 hPa NNW 2.0 mph /  3.2 km/h 2.0 mph /  3.2 km/h 61 % 0.00 in /  0 mm
14:15 60.1 °F /  15.6 °C 46.6 °F /  8.1 °C 30.10 in /  1019.2 hPa NW 2.3 mph /  3.7 km/h 2.3 mph /  3.7 km/h 61 % 0.00 in /  0 mm
14:20 60.1 °F /  15.6 °C 47.0 °F /  8.3 °C 30.10 in /  1019.2 hPa NW 1.2 mph /  1.9 km/h   62 % 0.00 in /  0 mm
14:25 60.2 °F /  15.7 °C 46.7 °F /  8.2 °C 30.09 in /  1018.8 hPa NW 1.2 mph /  1.9 km/h 1.2 mph /  1.9 km/h 61 % 0.00 in /  0 mm
14:30 60.4 °F /  15.8 °C 46.9 °F /  8.3 °C 30.09 in /  1018.8 hPa NNE 3.5 mph /  5.6 km/h 3.5 mph /  5.6 km/h 61 % 0.00 in /  0 mm
14:35 60.4 °F /  15.8 °C 46.0 °F /  7.8 °C 30.09 in /  1018.8 hPa NW 3.5 mph /  5.6 km/h 3.5 mph /  5.6 km/h 59 % 0.00 in /  0 mm
14:40 60.6 °F /  15.9 °C 46.2 °F /  7.9 °C 30.09 in /  1018.8 hPa WNW 2.3 mph /  3.7 km/h 2.3 mph /  3.7 km/h 59 % 0.00 in /  0 mm
14:45 60.7 °F /  15.9 °C 45.8 °F /  7.7 °C 30.09 in /  1018.8 hPa Calm     58 % 0.00 in /  0 mm
14:50 60.7 °F /  15.9 °C 45.8 °F /  7.7 °C 30.09 in /  1018.8 hPa NW 1.2 mph /  1.9 km/h 1.2 mph /  1.9 km/h 58 % 0.00 in /  0 mm
14:55 60.7 °F /  15.9 °C 46.7 °F /  8.2 °C 30.09 in /  1018.8 hPa ESE 1.2 mph /  1.9 km/h 1.2 mph /  1.9 km/h 60 % 0.00 in /  0 mm
15:00 60.8 °F /  16 °C 46.8 °F /  8.2 °C 30.09 in /  1018.8 hPa North 1.2 mph /  1.9 km/h 1.2 mph /  1.9 km/h 60 % 0.00 in /  0 mm
15:05 61.0 °F /  16.1 °C 47.0 °F /  8.3 °C 30.09 in /  1018.8 hPa ESE 1.2 mph /  1.9 km/h   60 % 0.00 in /  0 mm
15:10 61.0 °F /  16.1 °C 46.6 °F /  8.1 °C 30.09 in /  1018.8 hPa SSE 1.2 mph /  1.9 km/h 1.2 mph /  1.9 km/h 59 % 0.00 in /  0 mm
15:15 61.1 °F /  16.2 °C 46.7 °F /  8.2 °C 30.09 in /  1018.8 hPa Calm     59 % 0.00 in /  0 mm
15:20 61.1 °F /  16.2 °C 46.7 °F /  8.2 °C 30.09 in /  1018.8 hPa Calm     59 % 0.00 in /  0 mm
15:25 61.1 °F /  16.2 °C 46.7 °F /  8.2 °C 30.09 in /  1018.8 hPa ESE 1.2 mph /  1.9 km/h   59 % 0.00 in /  0 mm
15:30 61.0 °F /  16.1 °C 45.7 °F /  7.6 °C 30.09 in /  1018.8 hPa Calm     57 % 0.00 in /  0 mm
15:35 60.8 °F /  16 °C 45.5 °F /  7.5 °C 30.09 in /  1018.8 hPa NW 1.2 mph /  1.9 km/h 1.2 mph /  1.9 km/h 57 % 0.00 in /  0 mm
15:38 60.6 °F /  15.9 °C 45.3 °F /  7.4 °C 30.09 in /  1018.8 hPa West 1.2 mph /  1.9 km/h 1.2 mph /  1.9 km/h 57 % 0.00 in /  0 mm
15:43 60.3 °F /  15.7 °C 45.5 °F /  7.5 °C 30.09 in /  1018.8 hPa NW 2.3 mph /  3.7 km/h   58 % 0.00 in /  0 mm
15:48 60.1 °F /  15.6 °C 45.3 °F /  7.4 °C 30.09 in /  1018.8 hPa NW 1.2 mph /  1.9 km/h   58 % 0.00 in /  0 mm
15:53 59.9 °F /  15.5 °C 44.6 °F /  7 °C 30.09 in /  1018.8 hPa NW 2.3 mph /  3.7 km/h 2.3 mph /  3.7 km/h 57 % 0.00 in /  0 mm
15:58 59.8 °F /  15.4 °C 44.1 °F /  6.7 °C 30.09 in /  1018.8 hPa WNW 1.2 mph /  1.9 km/h 1.2 mph /  1.9 km/h 56 % 0.00 in /  0 mm
16:03 59.6 °F /  15.3 °C 43.4 °F /  6.3 °C 30.09 in /  1018.8 hPa NW 2.3 mph /  3.7 km/h 2.3 mph /  3.7 km/h 55 % 0.00 in /  0 mm
16:08 59.2 °F /  15.1 °C 42.6 °F /  5.9 °C 30.09 in /  1018.8 hPa NW 1.2 mph /  1.9 km/h 1.2 mph /  1.9 km/h 54 % 0.00 in /  0 mm
16:13 58.8 °F /  14.9 °C 42.7 °F /  5.9 °C 30.09 in /  1018.8 hPa NW 1.2 mph /  1.9 km/h 1.2 mph /  1.9 km/h 55 % 0.00 in /  0 mm
16:18 58.4 °F /  14.7 °C 42.3 °F /  5.7 °C 30.09 in /  1018.8 hPa NW 2.3 mph /  3.7 km/h 2.3 mph /  3.7 km/h 55 % 0.00 in /  0 mm
16:23 58.2 °F /  14.6 °C 42.6 °F /  5.9 °C 30.09 in /  1018.8 hPa WNW 1.2 mph /  1.9 km/h 1.2 mph /  1.9 km/h 56 % 0.00 in /  0 mm
16:28 57.7 °F /  14.3 °C 42.1 °F /  5.6 °C 30.09 in /  1018.8 hPa NW 1.2 mph /  1.9 km/h 1.2 mph /  1.9 km/h 56 % 0.00 in /  0 mm
16:33 57.4 °F /  14.1 °C 41.8 °F /  5.4 °C 30.09 in /  1018.8 hPa Calm     56 % 0.00 in /  0 mm
16:38 57.1 °F /  13.9 °C 41.5 °F /  5.3 °C 30.09 in /  1018.8 hPa WNW 1.2 mph /  1.9 km/h 1.2 mph /  1.9 km/h 56 % 0.00 in /  0 mm
16:43 56.6 °F /  13.7 °C 41.5 °F /  5.3 °C 30.09 in /  1018.8 hPa NW 1.2 mph /  1.9 km/h 1.2 mph /  1.9 km/h 57 % 0.00 in /  0 mm
16:46 56.4 °F /  13.6 °C 41.3 °F /  5.2 °C 30.09 in /  1018.8 hPa Calm     57 % 0.00 in /  0 mm
16:51 55.8 °F /  13.2 °C 41.2 °F /  5.1 °C 30.09 in /  1018.8 hPa WNW 1.2 mph /  1.9 km/h   58 % 0.00 in /  0 mm
16:56 55.3 °F /  12.9 °C 41.6 °F /  5.3 °C 30.09 in /  1018.8 hPa Calm     60 % 0.00 in /  0 mm
17:01 55.0 °F /  12.8 °C 41.4 °F /  5.2 °C 30.09 in /  1018.8 hPa WNW 1.2 mph /  1.9 km/h   60 % 0.00 in /  0 mm
17:06 54.9 °F /  12.7 °C 41.3 °F /  5.2 °C 30.09 in /  1018.8 hPa Calm     60 % 0.00 in /  0 mm
17:11 54.6 °F /  12.6 °C 41.0 °F /  5 °C 30.09 in /  1018.8 hPa Calm     60 % 0.00 in /  0 mm
17:16 54.3 °F /  12.4 °C 41.1 °F /  5.1 °C 30.10 in /  1019.2 hPa Calm     61 % 0.00 in /  0 mm
17:21 54.0 °F /  12.2 °C 41.3 °F /  5.2 °C 30.10 in /  1019.2 hPa Calm     62 % 0.00 in /  0 mm
17:26 53.8 °F /  12.1 °C 41.1 °F /  5.1 °C 30.10 in /  1019.2 hPa Calm     62 % 0.00 in /  0 mm
17:31 53.4 °F /  11.9 °C 41.1 °F /  5.1 °C 30.10 in /  1019.2 hPa Calm     63 % 0.00 in /  0 mm
17:36 53.1 °F /  11.7 °C 40.8 °F /  4.9 °C 30.10 in /  1019.2 hPa Calm     63 % 0.00 in /  0 mm
17:41 52.9 °F /  11.6 °C 40.6 °F /  4.8 °C 30.10 in /  1019.2 hPa Calm     63 % 0.00 in /  0 mm
17:46 52.8 °F /  11.6 °C 40.1 °F /  4.5 °C 30.10 in /  1019.2 hPa Calm     62 % 0.00 in /  0 mm
17:51 53.0 °F /  11.7 °C 39.5 °F /  4.2 °C 30.11 in /  1019.5 hPa Calm     60 % 0.00 in /  0 mm
17:56 52.9 °F /  11.6 °C 39.0 °F /  3.9 °C 30.11 in /  1019.5 hPa Calm     59 % 0.00 in /  0 mm
18:01 52.7 °F /  11.5 °C 38.8 °F /  3.8 °C 30.11 in /  1019.5 hPa Calm     59 % 0.00 in /  0 mm
18:06 52.2 °F /  11.2 °C 39.1 °F /  3.9 °C 30.11 in /  1019.5 hPa Calm     61 % 0.00 in /  0 mm
18:11 51.5 °F /  10.8 °C 39.3 °F /  4.1 °C 30.11 in /  1019.5 hPa Calm     63 % 0.00 in /  0 mm
18:16 51.0 °F /  10.6 °C 39.6 °F /  4.2 °C 30.11 in /  1019.5 hPa Calm     65 % 0.00 in /  0 mm
18:21 50.4 °F /  10.2 °C 39.5 °F /  4.2 °C 30.11 in /  1019.5 hPa Calm     66 % 0.00 in /  0 mm
18:26 50.0 °F /  10 °C 39.5 °F /  4.2 °C 30.11 in /  1019.5 hPa Calm     67 % 0.00 in /  0 mm
18:31 49.6 °F /  9.8 °C 39.5 °F /  4.2 °C 30.11 in /  1019.5 hPa Calm     68 % 0.00 in /  0 mm
18:36 49.5 °F /  9.7 °C 39.7 °F /  4.3 °C 30.11 in /  1019.5 hPa Calm     69 % 0.00 in /  0 mm
18:41 49.1 °F /  9.5 °C 40.1 °F /  4.5 °C 30.11 in /  1019.5 hPa Calm     71 % 0.00 in /  0 mm
18:46 48.5 °F /  9.2 °C 39.5 °F /  4.2 °C 30.11 in /  1019.5 hPa Calm     71 % 0.00 in /  0 mm
18:51 48.0 °F /  8.9 °C 39.8 °F /  4.3 °C 30.12 in /  1019.9 hPa Calm     73 % 0.00 in /  0 mm
18:56 47.5 °F /  8.6 °C 39.6 °F /  4.2 °C 30.12 in /  1019.9 hPa Calm     74 % 0.00 in /  0 mm
19:01 47.3 °F /  8.5 °C 39.8 °F /  4.3 °C 30.12 in /  1019.9 hPa Calm     75 % 0.00 in /  0 mm
19:06 47.1 °F /  8.4 °C 39.2 °F /  4 °C 30.12 in /  1019.9 hPa Calm     74 % 0.00 in /  0 mm
19:11 47.5 °F /  8.6 °C 39.3 °F /  4.1 °C 30.12 in /  1019.9 hPa Calm     73 % 0.00 in /  0 mm
19:16 48.0 °F /  8.9 °C 39.0 °F /  3.9 °C 30.12 in /  1019.9 hPa Calm     71 % 0.00 in /  0 mm
19:19 48.4 °F /  9.1 °C 39.1 °F /  3.9 °C 30.12 in /  1019.9 hPa Calm     70 % 0.00 in /  0 mm
19:20 48.6 °F /  9.2 °C 38.9 °F /  3.8 °C 30.11 in /  1019.5 hPa NW 1.2 mph /  1.9 km/h   69 % 0.00 in /  0 mm
19:23 48.9 °F /  9.4 °C 38.8 °F /  3.8 °C 30.12 in /  1019.9 hPa Calm     68 % 0.00 in /  0 mm
19:25 49.0 °F /  9.4 °C 38.9 °F /  3.8 °C 30.12 in /  1019.9 hPa NW 1.2 mph /  1.9 km/h   68 % 0.00 in /  0 mm
19:28 49.0 °F /  9.4 °C 38.9 °F /  3.8 °C 30.12 in /  1019.9 hPa Calm     68 % 0.00 in /  0 mm
19:30 49.0 °F /  9.4 °C 38.9 °F /  3.8 °C 30.12 in /  1019.9 hPa Calm     68 % 0.00 in /  0 mm
19:35 48.9 °F /  9.4 °C 38.8 °F /  3.8 °C 30.12 in /  1019.9 hPa Calm     68 % 0.00 in /  0 mm
19:39 48.7 °F /  9.3 °C 39.0 °F /  3.9 °C 30.12 in /  1019.9 hPa Calm     69 % 0.00 in /  0 mm
19:40 48.6 °F /  9.2 °C 38.5 °F /  3.6 °C 30.12 in /  1019.9 hPa Calm     68 % 0.00 in /  0 mm
19:45 48.2 °F /  9 °C 38.9 °F /  3.8 °C 30.12 in /  1019.9 hPa Calm     70 % 0.00 in /  0 mm
19:50 47.8 °F /  8.8 °C 38.8 °F /  3.8 °C 30.12 in /  1019.9 hPa Calm     71 % 0.00 in /  0 mm
19:56 47.3 °F /  8.5 °C 39.1 °F /  3.9 °C 30.12 in /  1019.9 hPa Calm     73 % 0.00 in /  0 mm
20:01 46.8 °F /  8.2 °C 39.3 °F /  4.1 °C 30.12 in /  1019.9 hPa Calm     75 % 0.00 in /  0 mm
20:06 46.1 °F /  7.8 °C 39.0 °F /  3.9 °C 30.13 in /  1020.2 hPa Calm     76 % 0.00 in /  0 mm
20:11 45.5 °F /  7.5 °C 38.7 °F /  3.7 °C 30.13 in /  1020.2 hPa Calm     77 % 0.00 in /  0 mm
20:16 45.1 °F /  7.3 °C 38.6 °F /  3.7 °C 30.13 in /  1020.2 hPa Calm     78 % 0.00 in /  0 mm
20:21 44.8 °F /  7.1 °C 38.7 °F /  3.7 °C 30.13 in /  1020.2 hPa Calm     79 % 0.00 in /  0 mm
20:26 44.5 °F /  6.9 °C 38.7 °F /  3.7 °C 30.14 in /  1020.5 hPa Calm     80 % 0.00 in /  0 mm
20:31 44.4 °F /  6.9 °C 38.9 °F /  3.8 °C 30.14 in /  1020.5 hPa Calm     81 % 0.00 in /  0 mm
20:36 44.5 °F /  6.9 °C 38.7 °F /  3.7 °C 30.14 in /  1020.5 hPa Calm     80 % 0.00 in /  0 mm
20:46 43.9 °F /  6.6 °C 38.4 °F /  3.6 °C 30.14 in /  1020.5 hPa Calm     81 % 0.00 in /  0 mm
20:51 43.4 °F /  6.3 °C 38.3 °F /  3.5 °C 30.14 in /  1020.5 hPa Calm     82 % 0.00 in /  0 mm
20:56 42.9 °F /  6.1 °C 38.1 °F /  3.4 °C 30.15 in /  1020.9 hPa Calm     83 % 0.00 in /  0 mm
21:01 42.4 °F /  5.8 °C 37.9 °F /  3.3 °C 30.15 in /  1020.9 hPa Calm     84 % 0.00 in /  0 mm
21:06 42.2 °F /  5.7 °C 38.0 °F /  3.3 °C 30.15 in /  1020.9 hPa Calm     85 % 0.00 in /  0 mm
21:11 42.0 °F /  5.6 °C 37.8 °F /  3.2 °C 30.15 in /  1020.9 hPa Calm     85 % 0.00 in /  0 mm
21:16 42.1 °F /  5.6 °C 38.2 °F /  3.4 °C 30.15 in /  1020.9 hPa Calm     86 % 0.00 in /  0 mm
21:21 42.1 °F /  5.6 °C 37.9 °F /  3.3 °C 30.15 in /  1020.9 hPa Calm     85 % 0.00 in /  0 mm
21:26 42.2 °F /  5.7 °C 38.0 °F /  3.3 °C 30.15 in /  1020.9 hPa Calm     85 % 0.00 in /  0 mm
21:36 42.2 °F /  5.7 °C 37.7 °F /  3.2 °C 30.16 in /  1021.2 hPa Calm     84 % 0.00 in /  0 mm
21:41 42.1 °F /  5.6 °C 37.6 °F /  3.1 °C 30.16 in /  1021.2 hPa Calm     84 % 0.00 in /  0 mm
21:46 42.0 °F /  5.6 °C 37.8 °F /  3.2 °C 30.16 in /  1021.2 hPa Calm     85 % 0.00 in /  0 mm
21:51 42.0 °F /  5.6 °C 37.8 °F /  3.2 °C 30.16 in /  1021.2 hPa Calm     85 % 0.00 in /  0 mm
21:56 42.0 °F /  5.6 °C 37.8 °F /  3.2 °C 30.16 in /  1021.2 hPa Calm     85 % 0.00 in /  0 mm
21:57 42.0 °F /  5.6 °C 37.8 °F /  3.2 °C 30.16 in /  1021.2 hPa Calm     85 % 0.00 in /  0 mm
22:02 42.1 °F /  5.6 °C 37.9 °F /  3.3 °C 30.16 in /  1021.2 hPa Calm     85 % 0.00 in /  0 mm
22:07 42.3 °F /  5.7 °C 38.1 °F /  3.4 °C 30.16 in /  1021.2 hPa Calm     85 % 0.00 in /  0 mm
22:12 42.5 °F /  5.8 °C 38.3 °F /  3.5 °C 30.16 in /  1021.2 hPa Calm     85 % 0.00 in /  0 mm
22:18 42.6 °F /  5.9 °C 38.4 °F /  3.6 °C 30.17 in /  1021.6 hPa Calm     85 % 0.00 in /  0 mm
22:23 42.6 °F /  5.9 °C 38.4 °F /  3.6 °C 30.17 in /  1021.6 hPa Calm     85 % 0.00 in /  0 mm
22:28 42.7 °F /  5.9 °C 38.5 °F /  3.6 °C 30.17 in /  1021.6 hPa Calm     85 % 0.00 in /  0 mm
22:33 42.7 °F /  5.9 °C 38.5 °F /  3.6 °C 30.17 in /  1021.6 hPa Calm     85 % 0.00 in /  0 mm
22:38 42.6 °F /  5.9 °C 38.4 °F /  3.6 °C 30.17 in /  1021.6 hPa Calm     85 % 0.00 in /  0 mm
22:43 42.5 °F /  5.8 °C 38.3 °F /  3.5 °C 30.17 in /  1021.6 hPa Calm     85 % 0.00 in /  0 mm
22:48 42.5 °F /  5.8 °C 38.3 °F /  3.5 °C 30.17 in /  1021.6 hPa Calm     85 % 0.00 in /  0 mm
22:53 42.5 °F /  5.8 °C 38.3 °F /  3.5 °C 30.17 in /  1021.6 hPa Calm     85 % 0.00 in /  0 mm
22:58 42.4 °F /  5.8 °C 38.2 °F /  3.4 °C 30.16 in /  1021.2 hPa Calm     85 % 0.00 in /  0 mm
23:03 42.3 °F /  5.7 °C 38.4 °F /  3.6 °C 30.16 in /  1021.2 hPa Calm     86 % 0.00 in /  0 mm
23:08 42.4 °F /  5.8 °C 38.2 °F /  3.4 °C 30.17 in /  1021.6 hPa Calm     85 % 0.00 in /  0 mm
23:13 42.4 °F /  5.8 °C 38.2 °F /  3.4 °C 30.17 in /  1021.6 hPa Calm     85 % 0.00 in /  0 mm
23:18 42.2 °F /  5.7 °C 38.0 °F /  3.3 °C 30.17 in /  1021.6 hPa Calm     85 % 0.00 in /  0 mm
23:23 42.0 °F /  5.6 °C 38.1 °F /  3.4 °C 30.17 in /  1021.6 hPa Calm     86 % 0.00 in /  0 mm
23:28 41.8 °F /  5.4 °C 37.9 °F /  3.3 °C 30.17 in /  1021.6 hPa Calm     86 % 0.00 in /  0 mm
23:33 41.6 °F /  5.3 °C 37.7 °F /  3.2 °C 30.17 in /  1021.6 hPa Calm     86 % 0.00 in /  0 mm
23:38 41.4 °F /  5.2 °C 37.8 °F /  3.2 °C 30.17 in /  1021.6 hPa Calm     87 % 0.00 in /  0 mm
23:43 41.3 °F /  5.2 °C 37.7 °F /  3.2 °C 30.16 in /  1021.2 hPa Calm     87 % 0.00 in /  0 mm
23:48 41.1 °F /  5.1 °C 37.5 °F /  3.1 °C 30.16 in /  1021.2 hPa Calm     87 % 0.00 in /  0 mm
23:53 41.1 °F /  5.1 °C 37.8 °F /  3.2 °C 30.16 in /  1021.2 hPa Calm     88 % 0.00 in /  0 mm
23:58 41.0 °F /  5 °C 37.7 °F /  3.2 °C 30.16 in /  1021.2 hPa Calm     88 % 0.00 in /  0 mm
Park Place, Exeter, Tulare County, California, USA
Compliments of Weather Underground - 2.75 mb